Time;durP1;ratioP1;P1;durP2;ratioP2;P2;SDS_P1;SDS_P2;PMS_P1;PMS_P2;Temp;Humidity;BMP_temperature;BMP_pressure;BME280_temperature;BME280_humidity;BME280_pressure;Samples;Min_cycle;Max_cycle;Signal;HPM_P1;HPM_P2
2023/03/04 00:01:59;;;;;;;11.63;2.90;;;6.00;99.90;;;;;;5060478;28;20050;-70
2023/03/04 00:04:25;;;;;;;19.07;3.37;;;6.00;99.90;;;;;;5096054;28;20049;-70
2023/03/04 00:06:51;;;;;;;16.20;2.83;;;6.00;99.90;;;;;;5077871;28;20092;-71
2023/03/04 00:09:16;;;;;;;13.10;2.43;;;6.00;99.90;;;;;;5095931;28;20066;-70
2023/03/04 00:11:42;;;;;;;12.57;2.93;;;6.00;99.90;;;;;;5060707;28;20040;-70
2023/03/04 00:14:08;;;;;;;12.83;3.13;;;6.00;99.90;;;;;;5057359;28;20079;-70
2023/03/04 00:16:34;;;;;;;11.90;2.43;;;6.00;99.90;;;;;;5076915;28;20082;-69
2023/03/04 00:18:59;;;;;;;10.33;2.90;;;6.00;99.90;;;;;;5058904;28;20071;-69
2023/03/04 00:21:25;;;;;;;12.97;2.87;;;6.00;99.90;;;;;;5077823;28;20051;-70
2023/03/04 00:23:51;;;;;;;12.47;3.17;;;6.00;99.90;;;;;;5040735;28;20144;-70
2023/03/04 00:26:17;;;;;;;16.30;2.83;;;6.00;99.90;;;;;;5074511;28;20044;-70
2023/03/04 00:28:43;;;;;;;15.43;3.53;;;6.00;99.90;;;;;;5057129;28;20041;-70
2023/03/04 00:31:09;;;;;;;15.90;2.93;;;6.00;99.90;;;;;;5043626;28;20040;-70
2023/03/04 00:33:35;;;;;;;11.60;3.13;;;6.00;99.90;;;;;;5059300;28;20052;-70
2023/03/04 00:36:03;;;;;;;12.20;2.93;;;6.00;99.90;;;;;;5077184;28;20117;-68
2023/03/04 00:38:29;;;;;;;8.47;2.37;;;6.00;99.90;;;;;;5096167;28;20044;-69
2023/03/04 00:40:54;;;;;;;11.87;2.60;;;6.00;99.90;;;;;;5077391;28;20062;-69
2023/03/04 00:43:21;;;;;;;11.73;2.73;;;6.00;99.90;;;;;;5060878;28;20048;-70
2023/03/04 00:45:47;;;;;;;15.20;2.63;;;6.00;99.90;;;;;;5077360;28;20091;-70
2023/03/04 00:48:13;;;;;;;12.10;3.13;;;6.00;99.90;;;;;;5060719;28;20475;-70
2023/03/04 00:50:39;;;;;;;9.03;2.20;;;6.00;99.90;;;;;;5060172;28;20410;-69
2023/03/04 00:53:05;;;;;;;10.00;3.03;;;6.00;99.90;;;;;;5056982;28;20036;-70
2023/03/04 00:55:30;;;;;;;12.47;2.60;;;6.00;99.90;;;;;;5059447;28;20120;-70
2023/03/04 00:57:56;;;;;;;12.70;2.90;;;6.00;99.90;;;;;;5093161;28;20033;-71
2023/03/04 01:00:22;;;;;;;10.67;2.40;;;6.00;99.90;;;;;;5057277;28;20051;-69
2023/03/04 01:02:48;;;;;;;10.07;2.60;;;6.00;99.90;;;;;;5056423;28;20036;-70
2023/03/04 01:05:14;;;;;;;14.37;2.33;;;6.00;99.90;;;;;;5076234;28;20070;-70
2023/03/04 01:07:40;;;;;;;11.43;2.33;;;6.00;99.90;;;;;;5077393;28;20043;-70
2023/03/04 01:10:09;;;;;;;10.93;2.37;;;6.00;99.90;;;;;;5056051;28;20040;-71
2023/03/04 01:12:35;;;;;;;9.57;2.07;;;6.00;99.90;;;;;;5076577;28;20052;-70
2023/03/04 01:15:02;;;;;;;11.60;2.60;;;6.00;99.90;;;;;;5059785;28;20047;-70
2023/03/04 01:17:27;;;;;;;13.53;2.67;;;6.00;99.90;;;;;;5059589;28;20043;-70
2023/03/04 01:19:53;;;;;;;12.33;2.60;;;6.00;99.90;;;;;;5069164;28;20055;-69
2023/03/04 01:22:19;;;;;;;15.63;2.73;;;6.00;99.90;;;;;;5076405;28;20052;-70
2023/03/04 01:24:45;;;;;;;13.20;2.80;;;6.00;99.90;;;;;;5076544;28;20650;-70
2023/03/04 01:27:11;;;;;;;10.13;3.37;;;6.00;99.90;;;;;;5067938;28;20056;-70
2023/03/04 01:29:36;;;;;;;12.27;2.27;;;6.00;99.90;;;;;;5076794;28;20817;-70
2023/03/04 01:32:03;;;;;;;13.07;3.00;;;6.00;99.90;;;;;;5093348;28;20066;-70
2023/03/04 01:34:29;;;;;;;13.47;2.60;;;6.00;99.90;;;;;;5076372;28;20036;-69
2023/03/04 01:36:54;;;;;;;11.67;2.53;;;6.00;99.90;;;;;;5075676;28;20039;-70
2023/03/04 01:39:20;;;;;;;14.33;2.60;;;6.00;99.90;;;;;;5056249;28;20540;-70
2023/03/04 01:41:46;;;;;;;12.17;2.50;;;6.00;99.90;;;;;;5086506;28;20035;-70
2023/03/04 01:44:12;;;;;;;11.03;2.63;;;6.00;99.90;;;;;;5093589;28;20350;-70
2023/03/04 01:46:41;;;;;;;9.43;2.20;;;6.00;99.90;;;;;;5056601;28;20044;-70
2023/03/04 01:49:10;;;;;;;17.13;3.20;;;6.00;99.90;;;;;;5089330;28;20051;-70
2023/03/04 01:51:36;;;;;;;15.83;2.70;;;6.00;99.90;;;;;;5059486;28;20486;-70
2023/03/04 01:54:02;;;;;;;12.47;2.73;;;6.00;99.90;;;;;;5055549;28;20070;-71
2023/03/04 01:56:33;;;;;;;11.67;2.77;;;6.00;99.90;;;;;;5085515;28;20074;-70
2023/03/04 01:59:17;;;;;;;14.33;2.70;;;6.00;99.90;;;;;;5094396;28;20644;-69
2023/03/04 02:01:49;;;;;;;7.60;2.30;;;6.00;99.90;;;;;;5055968;28;20271;-69
2023/03/04 02:04:17;;;;;;;10.68;2.55;;;6.00;99.90;;;;;;5047434;28;20041;-70
2023/03/04 02:06:44;;;;;;;11.90;3.00;;;6.00;99.90;;;;;;5055641;28;20055;-70
2023/03/04 02:09:10;;;;;;;13.47;2.77;;;6.00;99.90;;;;;;5056126;28;20613;-69
2023/03/04 02:11:37;;;;;;;10.47;2.70;;;5.90;99.90;;;;;;5055329;28;20045;-70
2023/03/04 02:14:04;;;;;;;15.67;3.33;;;5.90;99.90;;;;;;5075522;28;20592;-70
2023/03/04 02:16:30;;;;;;;13.83;2.67;;;5.90;99.90;;;;;;5075778;28;20587;-70
2023/03/04 02:18:56;;;;;;;13.37;2.87;;;5.90;99.90;;;;;;5075421;28;20052;-70
2023/03/04 02:21:30;;;;;;;11.57;2.77;;;5.90;99.90;;;;;;5094692;28;20094;-70
2023/03/04 02:24:25;;;;;;;10.60;2.40;;;5.90;99.90;;;;;;5049961;28;20115;-70
2023/03/04 02:26:51;;;;;;;8.93;2.40;;;5.90;99.90;;;;;;5075339;28;20047;-71
2023/03/04 02:29:17;;;;;;;11.53;2.80;;;5.90;99.90;;;;;;5075480;28;20439;-69
2023/03/04 02:31:46;;;;;;;12.93;2.40;;;5.90;99.90;;;;;;5042338;28;20032;-70
2023/03/04 02:34:24;;;;;;;12.17;2.50;;;5.80;99.90;;;;;;5074296;28;20063;-70
2023/03/04 02:36:52;;;;;;;11.23;2.70;;;5.80;99.90;;;;;;5075594;28;20071;-70
2023/03/04 02:39:29;;;;;;;19.47;3.27;;;5.80;99.90;;;;;;5072556;28;20056;-71
2023/03/04 02:41:55;;;;;;;10.70;2.77;;;5.80;99.90;;;;;;5091831;28;20126;-71
2023/03/04 02:44:27;;;;;;;12.80;2.90;;;5.80;99.90;;;;;;5072002;28;20048;-71
2023/03/04 02:46:53;;;;;;;10.70;2.50;;;5.70;99.90;;;;;;5074889;28;20097;-70
2023/03/04 02:49:20;;;;;;;11.47;2.80;;;5.70;99.90;;;;;;5093157;28;20043;-70
2023/03/04 02:51:49;;;;;;;14.13;2.67;;;5.70;99.90;;;;;;5093672;28;20047;-70
2023/03/04 02:54:21;;;;;;;13.27;2.93;;;5.70;99.90;;;;;;5072240;28;20057;-70
2023/03/04 02:56:52;;;;;;;12.18;2.63;;;5.60;99.90;;;;;;5057534;28;20059;-70
2023/03/04 02:59:19;;;;;;;10.88;2.80;;;5.60;99.90;;;;;;5097010;28;20028;-69
2023/03/04 03:01:45;;;;;;;14.17;2.97;;;5.60;99.90;;;;;;5045377;28;20487;-69
2023/03/04 03:04:11;;;;;;;12.20;3.23;;;5.70;99.90;;;;;;5075933;28;20036;-70
2023/03/04 03:06:37;;;;;;;11.13;2.73;;;5.60;99.90;;;;;;5063045;28;20127;-70
2023/03/04 03:09:04;;;;;;;8.17;2.50;;;5.60;99.90;;;;;;5079051;28;20048;-70
2023/03/04 03:11:29;;;;;;;12.13;2.60;;;5.60;99.90;;;;;;5078446;28;20040;-70
2023/03/04 03:13:56;;;;;;;10.40;2.90;;;5.60;99.90;;;;;;5096548;28;20040;-69
2023/03/04 03:16:22;;;;;;;9.37;2.50;;;5.60;99.90;;;;;;5078903;28;20052;-70
2023/03/04 03:18:48;;;;;;;12.03;2.50;;;5.60;99.90;;;;;;5059393;28;20051;-70
2023/03/04 03:21:13;;;;;;;11.90;2.53;;;5.70;99.90;;;;;;5038928;28;20052;-68
2023/03/04 03:23:39;;;;;;;11.37;2.90;;;5.70;99.90;;;;;;5062205;28;20126;-70
2023/03/04 03:26:05;;;;;;;13.87;2.77;;;5.60;99.90;;;;;;5062083;28;20055;-70
2023/03/04 03:28:30;;;;;;;12.43;2.83;;;5.60;99.90;;;;;;5095312;28;20044;-70
2023/03/04 03:30:56;;;;;;;12.47;2.40;;;5.60;99.90;;;;;;5064058;28;20097;-70
2023/03/04 03:33:22;;;;;;;8.77;2.37;;;5.60;99.90;;;;;;5091754;28;20048;-70
2023/03/04 03:35:48;;;;;;;11.03;2.13;;;5.70;99.90;;;;;;5096949;28;20442;-70
2023/03/04 03:38:14;;;;;;;9.47;2.13;;;5.70;99.90;;;;;;5078372;28;20056;-70
2023/03/04 03:40:39;;;;;;;8.80;2.60;;;5.70;99.90;;;;;;5094101;28;20065;-70
2023/03/04 03:43:05;;;;;;;8.23;2.20;;;5.70;99.90;;;;;;5076375;28;20048;-69
2023/03/04 03:45:31;;;;;;;15.40;2.37;;;5.70;99.90;;;;;;5078382;28;20045;-70
2023/03/04 03:47:57;;;;;;;7.60;2.37;;;5.70;99.90;;;;;;5078249;28;20117;-70
2023/03/04 03:50:22;;;;;;;7.93;2.40;;;5.70;99.90;;;;;;5060615;28;20040;-70
2023/03/04 03:52:48;;;;;;;13.00;3.30;;;5.70;99.90;;;;;;5096884;28;20043;-70
2023/03/04 03:55:14;;;;;;;13.10;3.10;;;5.70;99.90;;;;;;5061604;28;20047;-69
2023/03/04 03:57:40;;;;;;;13.23;2.47;;;5.70;99.90;;;;;;5077743;28;20118;-70
2023/03/04 04:00:06;;;;;;;13.53;2.57;;;5.70;99.90;;;;;;5074919;28;20057;-70
2023/03/04 04:02:32;;;;;;;8.27;2.10;;;5.60;99.90;;;;;;5091343;28;20093;-70
2023/03/04 04:04:58;;;;;;;11.17;2.20;;;5.60;99.90;;;;;;5061544;28;20127;-70
2023/03/04 04:07:23;;;;;;;10.23;2.30;;;5.60;99.90;;;;;;5077653;28;20040;-70
2023/03/04 04:09:49;;;;;;;9.40;2.20;;;5.70;99.90;;;;;;5057766;28;20067;-70
2023/03/04 04:12:16;;;;;;;8.70;2.30;;;5.70;99.90;;;;;;5078010;28;20044;-70
2023/03/04 04:14:42;;;;;;;6.90;2.10;;;5.70;99.90;;;;;;5061001;28;20040;-70
2023/03/04 04:17:08;;;;;;;8.27;2.17;;;5.70;99.90;;;;;;5078160;28;20058;-70
2023/03/04 04:19:34;;;;;;;10.33;2.10;;;5.70;99.90;;;;;;5095861;28;20808;-70
2023/03/04 04:22:00;;;;;;;11.03;2.27;;;5.70;99.90;;;;;;5077613;28;20093;-70
2023/03/04 04:24:26;;;;;;;11.93;3.27;;;5.70;99.90;;;;;;5095952;28;20103;-70
2023/03/04 04:26:51;;;;;;;9.40;2.37;;;5.70;99.90;;;;;;5061079;28;20098;-71
2023/03/04 04:29:17;;;;;;;10.07;2.30;;;5.70;99.90;;;;;;5076747;28;20051;-70
2023/03/04 04:31:43;;;;;;;13.13;2.43;;;5.70;99.90;;;;;;5095571;28;20427;-70
2023/03/04 04:34:09;;;;;;;18.07;2.57;;;5.70;99.90;;;;;;5077424;28;20302;-70
2023/03/04 04:36:35;;;;;;;10.43;2.43;;;5.70;99.90;;;;;;5057202;28;20052;-70
2023/03/04 04:39:01;;;;;;;10.97;2.23;;;5.70;99.90;;;;;;5042263;28;20412;-70
2023/03/04 04:41:30;;;;;;;10.27;2.50;;;5.70;99.90;;;;;;5095731;28;20062;-70
2023/03/04 04:43:56;;;;;;;8.07;2.30;;;5.70;99.90;;;;;;5077484;28;20051;-70
2023/03/04 04:46:22;;;;;;;11.07;2.20;;;5.70;99.90;;;;;;5073881;28;20040;-70
2023/03/04 04:48:48;;;;;;;10.73;2.70;;;5.70;99.90;;;;;;5086784;28;20210;-70
2023/03/04 04:51:14;;;;;;;8.57;2.20;;;5.70;99.90;;;;;;5060306;28;20101;-70
2023/03/04 04:53:40;;;;;;;10.67;2.67;;;5.70;99.90;;;;;;5026836;28;20048;-70
2023/03/04 04:56:15;;;;;;;11.23;2.10;;;5.60;99.90;;;;;;5057353;28;20055;-70
2023/03/04 04:58:42;;;;;;;8.20;2.13;;;5.60;99.90;;;;;;5060120;28;20582;-70
2023/03/04 05:01:08;;;;;;;10.83;2.03;;;5.60;99.90;;;;;;5076743;28;20492;-70
2023/03/04 05:03:35;;;;;;;8.40;2.23;;;5.60;99.90;;;;;;5060143;28;20470;-69
2023/03/04 05:06:01;;;;;;;9.57;2.63;;;5.60;99.90;;;;;;5065651;28;20049;-70
2023/03/04 05:08:27;;;;;;;10.50;2.40;;;5.60;99.90;;;;;;5056003;28;20036;-69
2023/03/04 05:10:53;;;;;;;11.73;1.80;;;5.60;99.90;;;;;;5075534;28;20059;-69
2023/03/04 05:13:18;;;;;;;12.23;2.33;;;5.60;99.90;;;;;;5077151;28;20059;-70
2023/03/04 05:15:45;;;;;;;9.57;2.07;;;5.50;99.90;;;;;;5095104;28;20084;-70
2023/03/04 05:18:11;;;;;;;9.57;2.20;;;5.60;99.90;;;;;;5075031;28;20056;-70
2023/03/04 05:20:36;;;;;;;7.90;2.17;;;5.60;99.90;;;;;;5038986;28;20040;-70
2023/03/04 05:23:02;;;;;;;8.03;2.47;;;5.60;99.90;;;;;;5059644;28;20043;-69
2023/03/04 05:25:28;;;;;;;7.70;2.30;;;5.50;99.90;;;;;;5056392;28;20048;-70
2023/03/04 05:27:54;;;;;;;13.30;2.10;;;5.50;99.90;;;;;;5076073;28;20079;-69
2023/03/04 05:30:20;;;;;;;7.97;2.30;;;5.50;99.90;;;;;;5056206;28;20040;-70
2023/03/04 05:32:45;;;;;;;9.83;2.70;;;5.60;99.90;;;;;;5058660;28;20086;-70
2023/03/04 05:35:11;;;;;;;8.90;2.47;;;5.50;99.90;;;;;;5070638;28;20054;-70
2023/03/04 05:37:37;;;;;;;10.37;2.33;;;5.50;99.90;;;;;;5059103;28;20051;-70
2023/03/04 05:40:04;;;;;;;8.50;2.40;;;5.50;99.90;;;;;;5056082;28;20084;-69
2023/03/04 05:42:29;;;;;;;10.03;2.10;;;5.50;99.90;;;;;;5071754;28;20048;-69
2023/03/04 05:44:55;;;;;;;12.03;2.70;;;5.50;99.90;;;;;;5072611;28;20044;-70
2023/03/04 05:47:21;;;;;;;7.30;2.47;;;5.50;99.90;;;;;;5073679;28;20462;-70
2023/03/04 05:49:46;;;;;;;10.23;2.13;;;5.50;99.90;;;;;;5040399;28;20507;-69
2023/03/04 05:52:12;;;;;;;10.77;2.23;;;5.50;99.90;;;;;;5067734;28;20050;-69
2023/03/04 05:54:38;;;;;;;9.73;2.67;;;5.50;99.90;;;;;;5041692;28;20050;-69
2023/03/04 05:57:04;;;;;;;12.57;2.87;;;5.50;99.90;;;;;;5051880;28;20119;-69
2023/03/04 05:59:29;;;;;;;9.67;2.60;;;5.40;99.90;;;;;;5057046;28;20639;-69
2023/03/04 06:01:55;;;;;;;11.83;2.27;;;5.40;99.90;;;;;;5073866;28;20057;-71
2023/03/04 06:04:21;;;;;;;10.67;2.47;;;5.40;99.90;;;;;;5057909;28;20092;-69
2023/03/04 06:06:47;;;;;;;12.53;2.80;;;5.30;99.90;;;;;;5072918;28;20040;-70
2023/03/04 06:09:13;;;;;;;12.37;2.93;;;5.30;99.90;;;;;;5091468;28;20318;-70
2023/03/04 06:11:39;;;;;;;8.67;2.47;;;5.30;99.90;;;;;;5074130;28;20044;-70
2023/03/04 06:14:05;;;;;;;10.77;2.53;;;5.30;99.90;;;;;;5055575;28;20064;-69
2023/03/04 06:16:31;;;;;;;11.77;2.23;;;5.30;99.90;;;;;;5054845;28;20052;-70
2023/03/04 06:18:57;;;;;;;11.07;2.43;;;5.30;99.90;;;;;;5091894;28;20108;-69
2023/03/04 06:21:23;;;;;;;11.97;2.90;;;5.30;99.90;;;;;;5073971;28;20096;-70
2023/03/04 06:23:48;;;;;;;9.90;2.53;;;5.40;99.90;;;;;;5052384;28;20265;-70
2023/03/04 06:26:15;;;;;;;7.43;2.57;;;5.40;99.90;;;;;;5039265;28;20040;-69
2023/03/04 06:28:44;;;;;;;8.00;2.50;;;5.40;99.90;;;;;;5058157;28;20432;-70
2023/03/04 06:31:10;;;;;;;8.50;2.40;;;5.40;99.90;;;;;;5043073;28;20048;-70
2023/03/04 06:33:36;;;;;;;11.27;3.10;;;5.40;99.90;;;;;;5078780;28;20149;-70
2023/03/04 06:36:02;;;;;;;7.83;2.30;;;5.40;99.90;;;;;;5060900;28;20052;-70
2023/03/04 06:38:28;;;;;;;10.10;2.70;;;5.40;99.90;;;;;;5077888;28;20043;-70
2023/03/04 06:40:54;;;;;;;14.30;2.50;;;5.40;99.90;;;;;;5057876;28;20044;-69
2023/03/04 06:43:19;;;;;;;13.50;2.87;;;5.40;99.90;;;;;;5095113;28;20032;-69
2023/03/04 06:45:45;;;;;;;9.13;2.67;;;5.50;99.90;;;;;;5096289;28;20040;-70
2023/03/04 06:48:11;;;;;;;8.00;2.13;;;5.50;99.90;;;;;;5060397;28;20413;-70
2023/03/04 06:50:39;;;;;;;7.67;2.50;;;5.50;99.90;;;;;;5077855;28;20117;-68
2023/03/04 06:53:05;;;;;;;9.50;2.40;;;5.50;99.90;;;;;;5095308;28;20031;-69
2023/03/04 06:55:30;;;;;;;9.37;1.90;;;5.60;99.90;;;;;;5058705;28;20047;-70
2023/03/04 06:57:56;;;;;;;10.93;2.27;;;5.50;99.90;;;;;;5039828;28;20036;-74
2023/03/04 07:00:25;;;;;;;6.60;1.97;;;5.60;99.90;;;;;;5074564;28;20048;-69
2023/03/04 07:02:51;;;;;;;9.30;2.30;;;5.60;99.90;;;;;;5088824;28;20184;-69
2023/03/04 07:05:16;;;;;;;7.17;2.20;;;5.60;99.90;;;;;;5077662;28;20321;-70
2023/03/04 07:07:42;;;;;;;8.03;2.17;;;5.60;99.90;;;;;;5075864;28;20036;-69
2023/03/04 07:10:09;;;;;;;7.70;2.40;;;5.60;99.90;;;;;;5069110;28;20040;-69
2023/03/04 07:12:35;;;;;;;6.70;1.90;;;5.60;99.90;;;;;;5096312;28;20047;-70
2023/03/04 07:15:01;;;;;;;5.17;1.43;;;5.60;99.90;;;;;;5044487;28;20055;-69
2023/03/04 07:17:27;;;;;;;4.23;1.63;;;5.60;99.90;;;;;;5059488;28;20175;-70
2023/03/04 07:19:52;;;;;;;5.67;1.40;;;5.60;99.90;;;;;;5040517;28;20064;-69
2023/03/04 07:22:18;;;;;;;9.47;1.70;;;5.60;99.90;;;;;;5027707;28;20039;-70
2023/03/04 07:24:44;;;;;;;8.67;1.97;;;5.60;99.90;;;;;;5074426;28;20530;-73
2023/03/04 07:27:09;;;;;;;6.50;1.60;;;5.60;99.90;;;;;;5061077;28;20040;-70
2023/03/04 07:29:35;;;;;;;8.33;2.27;;;5.70;99.90;;;;;;5055594;28;20497;-70
2023/03/04 07:32:01;;;;;;;8.63;2.13;;;5.70;99.90;;;;;;5058696;28;20075;-70
2023/03/04 07:34:26;;;;;;;10.30;2.60;;;5.80;99.90;;;;;;5076961;28;20063;-70
2023/03/04 07:36:52;;;;;;;7.80;2.23;;;5.80;99.90;;;;;;5067305;28;20044;-70
2023/03/04 07:39:18;;;;;;;6.27;1.57;;;5.80;99.90;;;;;;5060725;28;20028;-70
2023/03/04 07:41:43;;;;;;;9.97;2.33;;;5.90;99.90;;;;;;5057806;28;20040;-69
2023/03/04 07:44:11;;;;;;;10.53;2.13;;;5.90;99.90;;;;;;5042812;28;20539;-70
2023/03/04 07:46:37;;;;;;;8.03;2.00;;;5.90;99.90;;;;;;5070412;28;20082;-69
2023/03/04 07:49:03;;;;;;;7.73;1.80;;;5.90;99.90;;;;;;5058323;28;20032;-70
2023/03/04 07:51:28;;;;;;;7.30;1.63;;;5.90;99.90;;;;;;5089360;28;20051;-70
2023/03/04 07:53:59;;;;;;;6.77;1.87;;;5.90;99.90;;;;;;5095569;28;20051;-70
2023/03/04 07:56:28;;;;;;;10.00;2.20;;;5.90;99.90;;;;;;5075475;28;20039;-70
2023/03/04 07:58:55;;;;;;;9.43;1.70;;;5.90;99.90;;;;;;5074953;28;20097;-70
2023/03/04 08:01:39;;;;;;;7.23;1.60;;;5.90;99.90;;;;;;5057941;28;20036;-70
2023/03/04 08:04:06;;;;;;;8.20;1.80;;;5.90;99.90;;;;;;5075586;28;20107;-70
2023/03/04 08:06:31;;;;;;;8.80;2.17;;;5.90;99.90;;;;;;5072600;28;20103;-70
2023/03/04 08:09:00;;;;;;;8.73;2.20;;;5.90;99.90;;;;;;5076639;28;20044;-69
2023/03/04 08:11:28;;;;;;;12.63;1.80;;;5.90;99.90;;;;;;5093773;28;20122;-70
2023/03/04 08:13:54;;;;;;;6.47;2.00;;;5.90;99.90;;;;;;5058649;28;20056;-70
2023/03/04 08:16:22;;;;;;;8.90;1.60;;;6.00;99.90;;;;;;5093785;28;20075;-70
2023/03/04 08:18:50;;;;;;;5.63;1.90;;;6.00;99.90;;;;;;5059231;28;20040;-70
2023/03/04 08:21:18;;;;;;;6.10;1.77;;;6.00;99.90;;;;;;5092186;28;20485;-70
2023/03/04 08:23:45;;;;;;;8.83;1.97;;;6.00;99.90;;;;;;5074844;28;20141;-70
2023/03/04 08:26:23;;;;;;;10.13;2.20;;;6.00;99.90;;;;;;5075657;28;20098;-70
2023/03/04 08:28:49;;;;;;;11.50;2.30;;;6.10;99.90;;;;;;5074682;28;20511;-70
2023/03/04 08:31:17;;;;;;;9.00;2.30;;;6.10;99.90;;;;;;5075124;28;20038;-70
2023/03/04 08:33:44;;;;;;;10.73;2.20;;;6.10;99.90;;;;;;5057587;28;20504;-71
2023/03/04 08:36:10;;;;;;;13.63;2.87;;;6.20;99.90;;;;;;5072919;28;20519;-70
2023/03/04 08:38:36;;;;;;;8.77;2.60;;;6.10;99.90;;;;;;5058437;28;20081;-70
2023/03/04 08:41:04;;;;;;;13.07;3.60;;;6.10;99.90;;;;;;5055498;28;20057;-71
2023/03/04 08:43:32;;;;;;;14.23;3.53;;;6.10;99.90;;;;;;5090861;28;20035;-70
2023/03/04 08:45:57;;;;;;;15.03;3.57;;;6.00;99.90;;;;;;5058740;28;20566;-71
2023/03/04 08:48:23;;;;;;;15.37;3.33;;;6.00;99.90;;;;;;5074604;28;20082;-71
2023/03/04 08:50:50;;;;;;;18.07;3.80;;;6.00;99.90;;;;;;5075391;28;20047;-71
2023/03/04 08:53:17;;;;;;;14.57;3.33;;;6.00;99.90;;;;;;5056213;28;20028;-70
2023/03/04 08:55:43;;;;;;;15.13;3.80;;;6.00;99.90;;;;;;5093474;28;20089;-71
2023/03/04 08:58:09;;;;;;;18.07;4.30;;;6.00;99.90;;;;;;5053198;28;20044;-70
2023/03/04 09:00:38;;;;;;;14.63;3.87;;;6.00;99.90;;;;;;5038781;28;20040;-70
2023/03/04 09:03:04;;;;;;;14.23;3.80;;;6.10;99.90;;;;;;5074015;28;20036;-70
2023/03/04 09:05:31;;;;;;;19.23;3.50;;;6.20;99.90;;;;;;5075211;28;20032;-71
2023/03/04 09:07:57;;;;;;;16.63;3.73;;;6.20;99.90;;;;;;5075745;28;20258;-71
2023/03/04 09:10:23;;;;;;;19.40;4.77;;;6.20;99.90;;;;;;5056890;28;20133;-71
2023/03/04 09:12:49;;;;;;;22.67;3.70;;;6.20;99.90;;;;;;5070079;28;20139;-71
2023/03/04 09:15:15;;;;;;;22.87;4.37;;;6.30;99.90;;;;;;5037748;28;20079;-70
2023/03/04 09:17:40;;;;;;;15.43;3.43;;;6.30;99.90;;;;;;5035576;28;20047;-70
2023/03/04 09:20:09;;;;;;;15.63;3.93;;;6.30;99.90;;;;;;5056355;28;20059;-71
2023/03/04 09:22:38;;;;;;;18.53;4.07;;;6.30;99.90;;;;;;5072358;28;20515;-70
2023/03/04 09:25:05;;;;;;;17.63;3.57;;;6.40;99.90;;;;;;5071489;28;20063;-71
2023/03/04 09:27:31;;;;;;;20.33;4.47;;;6.40;99.90;;;;;;5057249;28;20089;-71
2023/03/04 09:29:56;;;;;;;16.80;4.27;;;6.40;99.90;;;;;;5057541;28;20617;-71
2023/03/04 09:32:22;;;;;;;16.67;3.77;;;6.40;99.90;;;;;;5073058;28;20054;-72
2023/03/04 09:34:48;;;;;;;20.00;3.50;;;6.50;99.90;;;;;;5040395;28;20052;-71
2023/03/04 09:37:13;;;;;;;20.77;3.90;;;6.50;99.90;;;;;;5057723;28;20146;-70
2023/03/04 09:39:39;;;;;;;16.70;4.23;;;6.50;99.90;;;;;;5057451;28;20040;-70
2023/03/04 09:42:08;;;;;;;21.17;4.10;;;6.50;99.90;;;;;;5070381;28;20060;-70
2023/03/04 09:44:38;;;;;;;22.33;4.23;;;6.60;99.90;;;;;;5057680;28;20048;-71
2023/03/04 09:47:16;;;;;;;19.23;3.77;;;6.60;99.90;;;;;;5057582;28;20442;-70
2023/03/04 09:49:50;;;;;;;15.73;4.00;;;6.70;99.90;;;;;;5071434;28;20051;-71
2023/03/04 09:52:53;;;;;;;16.87;3.93;;;6.70;99.90;;;;;;5068707;28;20040;-70
2023/03/04 09:55:27;;;;;;;14.23;3.40;;;6.80;99.90;;;;;;5091930;28;20147;-70
2023/03/04 09:58:00;;;;;;;17.27;3.37;;;6.80;99.90;;;;;;5068350;28;20126;-70
2023/03/04 10:00:42;;;;;;;16.83;3.07;;;6.80;99.90;;;;;;5072837;28;20059;-72
2023/03/04 10:03:10;;;;;;;16.33;3.55;;;6.90;99.90;;;;;;5074041;28;20044;-70
2023/03/04 10:05:43;;;;;;;9.30;2.40;;;6.80;99.90;;;;;;5057325;28;20044;-71
2023/03/04 10:08:31;;;;;;;15.23;3.30;;;6.80;99.90;;;;;;5071350;28;20044;-70
2023/03/04 10:10:59;;;;;;;12.57;2.43;;;6.70;99.90;;;;;;5068003;28;20160;-71
2023/03/04 10:14:03;;;;;;;7.83;2.37;;;6.60;99.90;;;;;;5032080;28;20074;-70
2023/03/04 10:16:43;;;;;;;10.20;2.23;;;6.50;99.90;;;;;;5091230;28;20055;-70
2023/03/04 10:19:44;;;;;;;7.63;1.90;;;6.40;99.90;;;;;;5090789;28;20459;-71
2023/03/04 10:22:39;;;;;;;2.60;1.30;;;6.50;99.90;;;;;;5032234;28;20377;-71
2023/03/04 10:25:25;;;;;;;9.37;1.87;;;6.70;99.90;;;;;;5055590;28;20060;-70
2023/03/04 10:27:56;;;;;;;5.80;1.80;;;6.80;99.90;;;;;;5072187;28;20036;-71
2023/03/04 10:30:52;;;;;;;6.33;1.60;;;6.90;99.90;;;;;;5073970;28;20102;-70
2023/03/04 10:33:20;;;;;;;7.37;1.50;;;6.90;99.90;;;;;;5092509;28;20094;-71
2023/03/04 10:36:03;;;;;;;7.47;1.80;;;7.00;99.90;;;;;;5071148;28;20087;-71
2023/03/04 10:38:35;;;;;;;10.73;1.70;;;7.20;99.90;;;;;;5052691;28;20055;-71
2023/03/04 10:41:01;;;;;;;9.38;1.70;;;7.30;99.90;;;;;;5066588;28;20589;-71
2023/03/04 10:43:27;;;;;;;7.77;2.00;;;7.20;99.90;;;;;;5054201;28;20147;-71
2023/03/04 10:45:56;;;;;;;6.53;1.90;;;7.20;99.90;;;;;;5074085;28;20465;-83
2023/03/04 10:48:25;;;;;;;9.10;1.83;;;7.10;99.90;;;;;;5054192;28;20080;-71
2023/03/04 10:50:51;;;;;;;6.77;1.83;;;7.00;99.90;;;;;;5074832;28;20048;-71
2023/03/04 10:53:43;;;;;;;9.60;2.23;;;7.00;99.90;;;;;;5055016;28;20044;-71
2023/03/04 10:56:39;;;;;;;13.65;2.45;;;6.80;99.90;;;;;;5089011;28;20064;-70
2023/03/04 10:59:24;;;;;;;11.47;2.93;;;6.70;99.90;;;;;;5093029;28;20056;-70
2023/03/04 11:01:52;;;;;;;11.73;3.00;;;6.80;99.90;;;;;;5070951;28;20041;-71
2023/03/04 11:04:18;;;;;;;15.23;2.63;;;6.80;99.90;;;;;;5074496;28;20044;-71
2023/03/04 11:06:44;;;;;;;19.07;3.80;;;6.90;99.90;;;;;;5089921;28;20051;-70
2023/03/04 11:09:25;;;;;;;18.93;4.50;;;7.00;99.90;;;;;;5070881;28;20048;-71
2023/03/04 11:11:53;;;;;;;16.53;3.80;;;7.10;99.90;;;;;;5054592;28;20149;-71
2023/03/04 11:14:35;;;;;;;14.17;3.47;;;7.00;99.90;;;;;;5057766;28;20048;-70
2023/03/04 11:17:16;;;;;;;15.82;2.85;;;7.10;99.90;;;;;;5041942;28;20072;-72
2023/03/04 11:19:46;;;;;;;12.00;3.17;;;7.10;99.90;;;;;;5076022;28;20044;-71
2023/03/04 11:22:18;;;;;;;12.40;3.30;;;7.10;99.90;;;;;;5077841;28;20051;-70
2023/03/04 11:24:50;;;;;;;;;;;7.00;99.90;;;;;;5094879;28;20044;-71
2023/03/04 11:27:26;;;;;;;11.68;2.92;;;6.90;99.90;;;;;;5054316;28;19931;-71
2023/03/04 11:30:22;;;;;;;18.47;3.57;;;6.90;99.90;;;;;;5073999;28;20071;-70
2023/03/04 11:32:50;;;;;;;12.37;3.03;;;6.90;99.90;;;;;;5058473;28;20048;-72
2023/03/04 11:35:27;;;;;;;16.17;3.00;;;6.90;99.90;;;;;;5077249;28;20068;-70
2023/03/04 11:38:25;;;;;;;12.17;3.20;;;6.90;99.90;;;;;;5073027;28;20059;-72
2023/03/04 11:41:24;;;;;;;14.10;3.60;;;7.00;99.90;;;;;;5057067;28;20056;-75
2023/03/04 11:43:50;;;;;;;20.17;3.63;;;7.10;99.90;;;;;;5085851;28;20111;-71
2023/03/04 11:46:32;;;;;;;16.70;3.13;;;7.10;99.90;;;;;;5095681;28;20106;-71
2023/03/04 11:49:06;;;;;;;14.60;2.85;;;7.00;99.90;;;;;;5075949;28;20054;-71
2023/03/04 11:51:41;;;;;;;16.37;3.20;;;6.90;99.90;;;;;;5076352;28;20052;-71
2023/03/04 11:54:22;;;;;;;14.70;3.30;;;6.90;99.90;;;;;;5076925;28;20063;-71
2023/03/04 11:56:56;;;;;;;16.53;3.30;;;6.90;99.90;;;;;;5052867;28;20044;-72
2023/03/04 11:59:40;;;;;;;16.57;3.70;;;7.00;99.90;;;;;;5060300;28;20079;-72
2023/03/04 12:02:22;;;;;;;12.13;4.37;;;7.00;99.90;;;;;;5072807;28;20079;-71
2023/03/04 12:04:57;;;;;;;12.05;3.17;;;7.10;99.90;;;;;;5076800;28;20554;-71
2023/03/04 12:07:51;;;;;;;15.53;3.13;;;7.20;99.90;;;;;;5069849;28;20060;-71
2023/03/04 12:10:36;;;;;;;10.90;3.30;;;7.40;99.90;;;;;;5059248;28;20052;-72
2023/03/04 12:13:10;;;;;;;15.40;3.43;;;7.50;99.90;;;;;;5075959;28;20043;-71
2023/03/04 12:16:12;;;;;;;9.80;2.17;;;7.60;99.90;;;;;;5057728;28;20062;-71
2023/03/04 12:18:57;;;;;;;13.95;2.72;;;7.40;99.90;;;;;;5054067;28;20040;-72
2023/03/04 12:21:38;;;;;;;11.63;2.70;;;7.20;99.90;;;;;;5058801;28;20048;-71
2023/03/04 12:24:30;;;;;;;8.83;2.70;;;7.00;99.90;;;;;;5071123;28;20645;-71
2023/03/04 12:27:13;;;;;;;11.20;2.42;;;6.90;99.90;;;;;;5090701;28;20051;-72
2023/03/04 12:29:54;;;;;;;8.37;2.13;;;6.90;99.90;;;;;;5073635;28;20047;-71
2023/03/04 12:32:38;;;;;;;9.30;2.83;;;6.80;99.90;;;;;;5070042;28;20100;-71
2023/03/04 12:35:36;;;;;;;9.77;2.47;;;6.80;99.90;;;;;;5085897;28;20043;-71
2023/03/04 12:38:29;;;;;;;11.93;3.40;;;6.90;99.90;;;;;;5047436;28;20048;-71
2023/03/04 12:41:20;;;;;;;15.60;3.10;;;7.10;99.90;;;;;;5067680;28;20039;-71
2023/03/04 12:44:03;;;;;;;14.67;3.37;;;7.20;99.90;;;;;;5083991;28;20887;-71
2023/03/04 12:46:44;;;;;;;11.17;3.00;;;7.30;99.90;;;;;;5056305;28;20055;-71
2023/03/04 12:49:33;;;;;;;12.17;2.90;;;7.20;99.90;;;;;;5083148;28;20054;-70
2023/03/04 12:52:05;;;;;;;10.87;2.63;;;7.30;99.90;;;;;;5094606;28;20071;-71
2023/03/04 12:54:37;;;;;;;8.77;2.67;;;7.30;99.90;;;;;;5079074;28;20077;-71
2023/03/04 12:57:25;;;;;;;15.50;3.08;;;7.20;99.90;;;;;;5095245;28;20127;-71
2023/03/04 13:00:05;;;;;;;15.73;2.90;;;7.30;99.90;;;;;;5043232;28;20492;-71
2023/03/04 13:03:10;;;;;;;13.50;2.57;;;7.40;99.90;;;;;;5055662;28;20066;-71
2023/03/04 13:05:47;;;;;;;11.83;3.07;;;7.40;99.90;;;;;;5033900;28;20048;-71